sensor_id;sensor_type;location;lat;lon;timestamp;P1;durP1;ratioP1;P2;durP2;ratioP2
56760;SDS011;42633;44.494;11.356;2022-07-10T00:01:12;4.50;;;1.60;;
56760;SDS011;42633;44.494;11.356;2022-07-10T00:04:16;3.10;;;1.40;;
56760;SDS011;42633;44.494;11.356;2022-07-10T00:07:22;2.70;;;1.70;;
56760;SDS011;42633;44.494;11.356;2022-07-10T00:10:26;3.20;;;2.10;;
56760;SDS011;42633;44.494;11.356;2022-07-10T00:13:32;4.28;;;2.00;;
56760;SDS011;42633;44.494;11.356;2022-07-10T00:16:36;3.47;;;1.63;;
56760;SDS011;42633;44.494;11.356;2022-07-10T00:19:40;5.93;;;2.03;;
56760;SDS011;42633;44.494;11.356;2022-07-10T00:22:44;2.47;;;1.50;;
56760;SDS011;42633;44.494;11.356;2022-07-10T00:25:48;2.17;;;1.65;;
56760;SDS011;42633;44.494;11.356;2022-07-10T00:28:52;3.28;;;1.90;;
56760;SDS011;42633;44.494;11.356;2022-07-10T00:31:57;1.70;;;1.13;;
56760;SDS011;42633;44.494;11.356;2022-07-10T00:35:01;2.10;;;1.25;;
56760;SDS011;42633;44.494;11.356;2022-07-10T00:38:05;1.33;;;0.68;;
56760;SDS011;42633;44.494;11.356;2022-07-10T00:41:09;1.90;;;0.93;;
56760;SDS011;42633;44.494;11.356;2022-07-10T00:44:14;4.07;;;0.82;;
56760;SDS011;42633;44.494;11.356;2022-07-10T00:47:18;4.50;;;0.80;;
56760;SDS011;42633;44.494;11.356;2022-07-10T00:50:23;1.50;;;0.63;;
56760;SDS011;42633;44.494;11.356;2022-07-10T00:53:27;2.70;;;0.82;;
56760;SDS011;42633;44.494;11.356;2022-07-10T00:56:31;2.00;;;1.08;;
56760;SDS011;42633;44.494;11.356;2022-07-10T00:59:36;2.88;;;1.23;;
56760;SDS011;42633;44.494;11.356;2022-07-10T01:02:43;2.85;;;0.85;;
56760;SDS011;42633;44.494;11.356;2022-07-10T01:05:47;1.85;;;1.02;;
56760;SDS011;42633;44.494;11.356;2022-07-10T01:08:51;1.55;;;0.80;;
56760;SDS011;42633;44.494;11.356;2022-07-10T01:11:56;2.55;;;0.80;;
56760;SDS011;42633;44.494;11.356;2022-07-10T01:15:00;2.28;;;0.95;;
56760;SDS011;42633;44.494;11.356;2022-07-10T01:18:05;0.98;;;0.80;;
56760;SDS011;42633;44.494;11.356;2022-07-10T01:24:33;1.70;;;0.85;;
56760;SDS011;42633;44.494;11.356;2022-07-10T01:27:37;1.65;;;1.00;;
56760;SDS011;42633;44.494;11.356;2022-07-10T01:30:41;2.00;;;1.23;;
56760;SDS011;42633;44.494;11.356;2022-07-10T01:33:46;1.33;;;0.90;;
56760;SDS011;42633;44.494;11.356;2022-07-10T01:36:51;1.92;;;1.00;;
56760;SDS011;42633;44.494;11.356;2022-07-10T01:39:55;1.83;;;0.75;;
56760;SDS011;42633;44.494;11.356;2022-07-10T01:42:59;2.85;;;0.90;;
56760;SDS011;42633;44.494;11.356;2022-07-10T01:46:04;0.93;;;0.82;;
56760;SDS011;42633;44.494;11.356;2022-07-10T01:49:08;0.80;;;0.80;;
56760;SDS011;42633;44.494;11.356;2022-07-10T01:52:12;8.85;;;3.45;;
56760;SDS011;42633;44.494;11.356;2022-07-10T01:55:16;4.75;;;1.80;;
56760;SDS011;42633;44.494;11.356;2022-07-10T01:58:20;2.28;;;1.20;;
56760;SDS011;42633;44.494;11.356;2022-07-10T02:01:24;3.05;;;1.20;;
56760;SDS011;42633;44.494;11.356;2022-07-10T02:04:27;3.42;;;1.20;;
56760;SDS011;42633;44.494;11.356;2022-07-10T02:07:47;3.42;;;1.25;;
56760;SDS011;42633;44.494;11.356;2022-07-10T02:10:51;4.50;;;1.00;;
56760;SDS011;42633;44.494;11.356;2022-07-10T02:13:57;3.25;;;0.90;;
56760;SDS011;42633;44.494;11.356;2022-07-10T02:17:01;1.85;;;1.00;;
56760;SDS011;42633;44.494;11.356;2022-07-10T02:20:05;1.92;;;1.05;;
56760;SDS011;42633;44.494;11.356;2022-07-10T02:23:10;1.27;;;0.80;;
56760;SDS011;42633;44.494;11.356;2022-07-10T02:26:14;3.90;;;0.73;;
56760;SDS011;42633;44.494;11.356;2022-07-10T02:29:18;1.35;;;0.85;;
56760;SDS011;42633;44.494;11.356;2022-07-10T02:32:22;3.28;;;0.90;;
56760;SDS011;42633;44.494;11.356;2022-07-10T02:35:26;2.10;;;1.15;;
56760;SDS011;42633;44.494;11.356;2022-07-10T02:38:30;2.28;;;1.00;;
56760;SDS011;42633;44.494;11.356;2022-07-10T02:41:34;2.42;;;1.00;;
56760;SDS011;42633;44.494;11.356;2022-07-10T02:44:41;2.15;;;1.10;;
56760;SDS011;42633;44.494;11.356;2022-07-10T02:47:45;1.60;;;0.80;;
56760;SDS011;42633;44.494;11.356;2022-07-10T02:50:49;2.78;;;1.08;;
56760;SDS011;42633;44.494;11.356;2022-07-10T02:53:53;1.00;;;0.80;;
56760;SDS011;42633;44.494;11.356;2022-07-10T02:56:57;1.30;;;0.80;;
56760;SDS011;42633;44.494;11.356;2022-07-10T03:00:01;3.55;;;1.10;;
56760;SDS011;42633;44.494;11.356;2022-07-10T03:03:05;3.50;;;0.82;;
56760;SDS011;42633;44.494;11.356;2022-07-10T03:06:09;2.17;;;0.93;;
56760;SDS011;42633;44.494;11.356;2022-07-10T03:09:13;1.10;;;0.80;;
56760;SDS011;42633;44.494;11.356;2022-07-10T03:12:17;3.42;;;1.52;;
56760;SDS011;42633;44.494;11.356;2022-07-10T03:15:22;2.63;;;1.42;;
56760;SDS011;42633;44.494;11.356;2022-07-10T03:18:26;2.95;;;1.48;;
56760;SDS011;42633;44.494;11.356;2022-07-10T03:21:30;2.25;;;1.27;;
56760;SDS011;42633;44.494;11.356;2022-07-10T03:24:34;3.72;;;1.00;;
56760;SDS011;42633;44.494;11.356;2022-07-10T03:27:38;3.75;;;1.40;;
56760;SDS011;42633;44.494;11.356;2022-07-10T03:30:42;4.60;;;1.52;;
56760;SDS011;42633;44.494;11.356;2022-07-10T03:33:47;13.57;;;1.70;;
56760;SDS011;42633;44.494;11.356;2022-07-10T03:36:51;5.97;;;1.00;;
56760;SDS011;42633;44.494;11.356;2022-07-10T03:39:55;2.20;;;0.82;;
56760;SDS011;42633;44.494;11.356;2022-07-10T03:42:59;1.52;;;0.90;;
56760;SDS011;42633;44.494;11.356;2022-07-10T03:46:03;2.50;;;0.95;;
56760;SDS011;42633;44.494;11.356;2022-07-10T03:49:08;3.10;;;0.93;;
56760;SDS011;42633;44.494;11.356;2022-07-10T03:52:12;1.75;;;0.95;;
56760;SDS011;42633;44.494;11.356;2022-07-10T03:55:16;3.03;;;1.10;;
56760;SDS011;42633;44.494;11.356;2022-07-10T03:58:20;5.10;;;1.23;;
56760;SDS011;42633;44.494;11.356;2022-07-10T04:01:24;7.47;;;2.05;;
56760;SDS011;42633;44.494;11.356;2022-07-10T04:04:28;5.45;;;1.65;;
56760;SDS011;42633;44.494;11.356;2022-07-10T04:07:33;3.72;;;1.30;;
56760;SDS011;42633;44.494;11.356;2022-07-10T04:10:38;1.80;;;1.20;;
56760;SDS011;42633;44.494;11.356;2022-07-10T04:13:43;3.53;;;1.00;;
56760;SDS011;42633;44.494;11.356;2022-07-10T04:16:47;3.53;;;1.02;;
56760;SDS011;42633;44.494;11.356;2022-07-10T04:19:51;1.65;;;1.20;;
56760;SDS011;42633;44.494;11.356;2022-07-10T04:22:56;2.65;;;0.95;;
56760;SDS011;42633;44.494;11.356;2022-07-10T04:26:00;4.18;;;0.88;;
56760;SDS011;42633;44.494;11.356;2022-07-10T04:29:05;3.05;;;1.02;;
56760;SDS011;42633;44.494;11.356;2022-07-10T04:32:09;2.85;;;1.02;;
56760;SDS011;42633;44.494;11.356;2022-07-10T04:35:13;1.25;;;0.80;;
56760;SDS011;42633;44.494;11.356;2022-07-10T04:38:17;1.23;;;0.70;;
56760;SDS011;42633;44.494;11.356;2022-07-10T04:41:21;1.83;;;0.88;;
56760;SDS011;42633;44.494;11.356;2022-07-10T04:44:25;4.53;;;1.17;;
56760;SDS011;42633;44.494;11.356;2022-07-10T04:47:29;1.65;;;1.00;;
56760;SDS011;42633;44.494;11.356;2022-07-10T04:50:33;1.52;;;0.80;;
56760;SDS011;42633;44.494;11.356;2022-07-10T04:53:37;2.15;;;0.88;;
56760;SDS011;42633;44.494;11.356;2022-07-10T04:56:40;2.90;;;0.85;;
56760;SDS011;42633;44.494;11.356;2022-07-10T04:59:44;2.03;;;0.60;;
56760;SDS011;42633;44.494;11.356;2022-07-10T05:02:48;2.88;;;0.80;;
56760;SDS011;42633;44.494;11.356;2022-07-10T05:05:53;1.08;;;0.70;;
56760;SDS011;42633;44.494;11.356;2022-07-10T05:08:57;1.83;;;1.05;;
56760;SDS011;42633;44.494;11.356;2022-07-10T05:12:01;4.22;;;1.20;;
56760;SDS011;42633;44.494;11.356;2022-07-10T05:15:05;1.40;;;1.00;;
56760;SDS011;42633;44.494;11.356;2022-07-10T05:18:10;1.35;;;0.85;;
56760;SDS011;42633;44.494;11.356;2022-07-10T05:21:14;1.75;;;0.82;;
56760;SDS011;42633;44.494;11.356;2022-07-10T05:24:18;3.35;;;1.10;;
56760;SDS011;42633;44.494;11.356;2022-07-10T05:27:22;2.50;;;0.90;;
56760;SDS011;42633;44.494;11.356;2022-07-10T05:30:26;1.67;;;1.40;;
56760;SDS011;42633;44.494;11.356;2022-07-10T05:33:30;3.53;;;1.20;;
56760;SDS011;42633;44.494;11.356;2022-07-10T05:36:35;2.47;;;0.80;;
56760;SDS011;42633;44.494;11.356;2022-07-10T05:39:39;2.55;;;0.90;;
56760;SDS011;42633;44.494;11.356;2022-07-10T05:42:43;1.58;;;0.80;;
56760;SDS011;42633;44.494;11.356;2022-07-10T05:45:48;3.75;;;0.90;;
56760;SDS011;42633;44.494;11.356;2022-07-10T05:48:52;1.73;;;1.00;;
56760;SDS011;42633;44.494;11.356;2022-07-10T05:51:56;2.47;;;1.23;;
56760;SDS011;42633;44.494;11.356;2022-07-10T05:55:01;1.73;;;1.08;;
56760;SDS011;42633;44.494;11.356;2022-07-10T05:58:05;2.22;;;0.82;;
56760;SDS011;42633;44.494;11.356;2022-07-10T06:01:09;2.65;;;1.15;;
56760;SDS011;42633;44.494;11.356;2022-07-10T06:04:13;2.63;;;1.00;;
56760;SDS011;42633;44.494;11.356;2022-07-10T06:07:17;2.03;;;1.00;;
56760;SDS011;42633;44.494;11.356;2022-07-10T06:10:21;2.25;;;1.27;;
56760;SDS011;42633;44.494;11.356;2022-07-10T06:13:25;2.42;;;1.63;;
56760;SDS011;42633;44.494;11.356;2022-07-10T06:16:29;3.92;;;1.63;;
56760;SDS011;42633;44.494;11.356;2022-07-10T06:19:33;3.13;;;1.17;;
56760;SDS011;42633;44.494;11.356;2022-07-10T06:22:37;2.42;;;1.23;;
56760;SDS011;42633;44.494;11.356;2022-07-10T06:25:41;2.95;;;1.55;;
56760;SDS011;42633;44.494;11.356;2022-07-10T06:28:45;2.15;;;1.20;;
56760;SDS011;42633;44.494;11.356;2022-07-10T06:31:49;1.73;;;1.10;;
56760;SDS011;42633;44.494;11.356;2022-07-10T06:34:53;2.13;;;1.45;;
56760;SDS011;42633;44.494;11.356;2022-07-10T06:37:58;4.22;;;1.10;;
56760;SDS011;42633;44.494;11.356;2022-07-10T06:41:02;3.33;;;1.45;;
56760;SDS011;42633;44.494;11.356;2022-07-10T06:44:06;4.85;;;1.60;;
56760;SDS011;42633;44.494;11.356;2022-07-10T06:47:10;4.95;;;1.60;;
56760;SDS011;42633;44.494;11.356;2022-07-10T06:50:35;3.15;;;1.20;;
56760;SDS011;42633;44.494;11.356;2022-07-10T06:53:40;2.47;;;1.23;;
56760;SDS011;42633;44.494;11.356;2022-07-10T06:56:43;1.83;;;1.30;;
56760;SDS011;42633;44.494;11.356;2022-07-10T06:59:47;3.25;;;1.40;;
56760;SDS011;42633;44.494;11.356;2022-07-10T07:02:51;2.20;;;1.10;;
56760;SDS011;42633;44.494;11.356;2022-07-10T07:05:56;3.03;;;1.00;;
56760;SDS011;42633;44.494;11.356;2022-07-10T07:08:59;3.00;;;1.10;;
56760;SDS011;42633;44.494;11.356;2022-07-10T07:12:03;1.92;;;1.00;;
56760;SDS011;42633;44.494;11.356;2022-07-10T07:15:08;1.58;;;0.90;;
56760;SDS011;42633;44.494;11.356;2022-07-10T07:18:13;3.17;;;1.02;;
56760;SDS011;42633;44.494;11.356;2022-07-10T07:21:19;1.48;;;1.08;;
56760;SDS011;42633;44.494;11.356;2022-07-10T07:24:42;0.88;;;0.80;;
56760;SDS011;42633;44.494;11.356;2022-07-10T07:27:46;1.58;;;1.00;;
56760;SDS011;42633;44.494;11.356;2022-07-10T07:30:50;2.17;;;1.00;;
56760;SDS011;42633;44.494;11.356;2022-07-10T07:33:54;1.10;;;0.93;;
56760;SDS011;42633;44.494;11.356;2022-07-10T07:36:58;3.08;;;1.00;;
56760;SDS011;42633;44.494;11.356;2022-07-10T07:40:06;1.17;;;0.80;;
56760;SDS011;42633;44.494;11.356;2022-07-10T07:43:12;2.10;;;0.90;;
56760;SDS011;42633;44.494;11.356;2022-07-10T07:46:16;4.40;;;1.67;;
56760;SDS011;42633;44.494;11.356;2022-07-10T07:49:20;2.83;;;0.80;;
56760;SDS011;42633;44.494;11.356;2022-07-10T07:52:24;1.30;;;0.55;;
56760;SDS011;42633;44.494;11.356;2022-07-10T07:55:29;2.30;;;1.13;;
56760;SDS011;42633;44.494;11.356;2022-07-10T07:58:34;2.20;;;0.77;;
56760;SDS011;42633;44.494;11.356;2022-07-10T08:01:38;1.25;;;0.70;;
56760;SDS011;42633;44.494;11.356;2022-07-10T08:04:42;1.52;;;0.82;;
56760;SDS011;42633;44.494;11.356;2022-07-10T08:07:48;2.58;;;0.57;;
56760;SDS011;42633;44.494;11.356;2022-07-10T08:10:54;2.42;;;0.70;;
56760;SDS011;42633;44.494;11.356;2022-07-10T08:13:58;2.78;;;0.93;;
56760;SDS011;42633;44.494;11.356;2022-07-10T08:17:02;1.00;;;0.70;;
56760;SDS011;42633;44.494;11.356;2022-07-10T08:20:07;2.03;;;0.70;;
56760;SDS011;42633;44.494;11.356;2022-07-10T08:23:15;1.40;;;0.60;;
56760;SDS011;42633;44.494;11.356;2022-07-10T08:26:27;1.75;;;0.60;;
56760;SDS011;42633;44.494;11.356;2022-07-10T08:29:31;1.73;;;0.77;;
56760;SDS011;42633;44.494;11.356;2022-07-10T08:32:35;1.20;;;0.80;;
56760;SDS011;42633;44.494;11.356;2022-07-10T08:35:40;2.40;;;0.70;;
56760;SDS011;42633;44.494;11.356;2022-07-10T08:38:49;1.88;;;0.75;;
56760;SDS011;42633;44.494;11.356;2022-07-10T08:41:53;2.63;;;1.00;;
56760;SDS011;42633;44.494;11.356;2022-07-10T08:45:01;0.80;;;0.60;;
56760;SDS011;42633;44.494;11.356;2022-07-10T08:48:05;3.67;;;0.60;;
56760;SDS011;42633;44.494;11.356;2022-07-10T08:54:20;3.58;;;0.70;;
56760;SDS011;42633;44.494;11.356;2022-07-10T08:57:25;0.75;;;0.55;;
56760;SDS011;42633;44.494;11.356;2022-07-10T09:00:30;2.17;;;0.77;;
56760;SDS011;42633;44.494;11.356;2022-07-10T09:03:34;0.85;;;0.55;;
56760;SDS011;42633;44.494;11.356;2022-07-10T09:06:40;1.58;;;0.70;;
56760;SDS011;42633;44.494;11.356;2022-07-10T09:09:51;0.77;;;0.47;;
56760;SDS011;42633;44.494;11.356;2022-07-10T09:12:58;2.67;;;0.60;;
56760;SDS011;42633;44.494;11.356;2022-07-10T09:16:05;1.35;;;0.57;;
56760;SDS011;42633;44.494;11.356;2022-07-10T09:22:23;1.13;;;0.68;;
56760;SDS011;42633;44.494;11.356;2022-07-10T09:25:33;1.42;;;0.68;;
56760;SDS011;42633;44.494;11.356;2022-07-10T09:28:37;3.63;;;0.70;;
56760;SDS011;42633;44.494;11.356;2022-07-10T09:35:12;1.00;;;0.50;;
56760;SDS011;42633;44.494;11.356;2022-07-10T09:41:52;1.33;;;0.77;;
56760;SDS011;42633;44.494;11.356;2022-07-10T09:48:15;1.27;;;0.60;;
56760;SDS011;42633;44.494;11.356;2022-07-10T09:51:26;1.42;;;0.68;;
56760;SDS011;42633;44.494;11.356;2022-07-10T09:54:34;3.33;;;0.80;;
56760;SDS011;42633;44.494;11.356;2022-07-10T09:57:40;1.37;;;0.80;;
56760;SDS011;42633;44.494;11.356;2022-07-10T10:03:52;0.98;;;0.68;;
56760;SDS011;42633;44.494;11.356;2022-07-10T10:06:57;4.47;;;0.65;;
56760;SDS011;42633;44.494;11.356;2022-07-10T10:10:03;3.20;;;0.70;;
56760;SDS011;42633;44.494;11.356;2022-07-10T10:13:10;0.90;;;0.55;;
56760;SDS011;42633;44.494;11.356;2022-07-10T10:16:15;1.23;;;0.45;;
56760;SDS011;42633;44.494;11.356;2022-07-10T10:19:21;1.10;;;0.52;;
56760;SDS011;42633;44.494;11.356;2022-07-10T10:22:45;1.40;;;0.90;;
56760;SDS011;42633;44.494;11.356;2022-07-10T10:25:52;2.03;;;1.25;;
56760;SDS011;42633;44.494;11.356;2022-07-10T10:29:01;2.40;;;1.00;;
56760;SDS011;42633;44.494;11.356;2022-07-10T10:32:07;0.90;;;0.60;;
56760;SDS011;42633;44.494;11.356;2022-07-10T10:35:37;1.00;;;0.80;;
56760;SDS011;42633;44.494;11.356;2022-07-10T10:41:58;1.40;;;0.60;;
56760;SDS011;42633;44.494;11.356;2022-07-10T10:48:30;1.02;;;0.63;;
56760;SDS011;42633;44.494;11.356;2022-07-10T10:55:13;1.20;;;0.50;;
56760;SDS011;42633;44.494;11.356;2022-07-10T10:58:17;1.13;;;0.65;;
56760;SDS011;42633;44.494;11.356;2022-07-10T11:01:26;1.63;;;0.68;;
56760;SDS011;42633;44.494;11.356;2022-07-10T11:04:32;1.15;;;0.70;;
56760;SDS011;42633;44.494;11.356;2022-07-10T11:11:02;2.35;;;0.73;;
56760;SDS011;42633;44.494;11.356;2022-07-10T11:14:35;2.45;;;0.65;;
56760;SDS011;42633;44.494;11.356;2022-07-10T11:17:46;2.10;;;1.00;;
56760;SDS011;42633;44.494;11.356;2022-07-10T11:20:50;1.35;;;0.85;;
56760;SDS011;42633;44.494;11.356;2022-07-10T11:27:34;2.65;;;0.70;;
56760;SDS011;42633;44.494;11.356;2022-07-10T11:30:52;1.85;;;0.80;;
56760;SDS011;42633;44.494;11.356;2022-07-10T11:33:57;2.67;;;1.02;;
56760;SDS011;42633;44.494;11.356;2022-07-10T11:37:02;1.30;;;0.80;;
56760;SDS011;42633;44.494;11.356;2022-07-10T11:40:16;2.38;;;0.90;;
56760;SDS011;42633;44.494;11.356;2022-07-10T11:43:22;1.27;;;0.70;;
56760;SDS011;42633;44.494;11.356;2022-07-10T11:46:30;2.83;;;0.70;;
56760;SDS011;42633;44.494;11.356;2022-07-10T11:49:36;0.90;;;0.77;;
56760;SDS011;42633;44.494;11.356;2022-07-10T11:52:48;1.98;;;1.17;;
56760;SDS011;42633;44.494;11.356;2022-07-10T11:55:53;2.53;;;0.80;;
56760;SDS011;42633;44.494;11.356;2022-07-10T11:59:08;1.92;;;1.55;;
56760;SDS011;42633;44.494;11.356;2022-07-10T12:02:21;1.45;;;1.00;;
56760;SDS011;42633;44.494;11.356;2022-07-10T12:05:29;2.78;;;1.00;;
56760;SDS011;42633;44.494;11.356;2022-07-10T12:08:44;2.35;;;1.30;;
56760;SDS011;42633;44.494;11.356;2022-07-10T12:12:02;4.10;;;2.90;;
56760;SDS011;42633;44.494;11.356;2022-07-10T12:15:08;2.05;;;1.40;;
56760;SDS011;42633;44.494;11.356;2022-07-10T12:21:24;1.42;;;1.20;;
56760;SDS011;42633;44.494;11.356;2022-07-10T12:24:28;1.10;;;0.93;;
56760;SDS011;42633;44.494;11.356;2022-07-10T12:27:39;2.65;;;2.03;;
56760;SDS011;42633;44.494;11.356;2022-07-10T12:30:46;1.40;;;0.73;;
56760;SDS011;42633;44.494;11.356;2022-07-10T12:33:55;2.42;;;0.90;;
56760;SDS011;42633;44.494;11.356;2022-07-10T12:37:10;7.47;;;5.15;;
56760;SDS011;42633;44.494;11.356;2022-07-10T12:40:31;1.85;;;0.80;;
56760;SDS011;42633;44.494;11.356;2022-07-10T12:43:36;2.65;;;0.95;;
56760;SDS011;42633;44.494;11.356;2022-07-10T12:46:41;1.02;;;0.82;;
56760;SDS011;42633;44.494;11.356;2022-07-10T12:53:08;1.65;;;1.00;;
56760;SDS011;42633;44.494;11.356;2022-07-10T12:59:36;0.93;;;0.77;;
56760;SDS011;42633;44.494;11.356;2022-07-10T13:02:41;1.77;;;0.80;;
56760;SDS011;42633;44.494;11.356;2022-07-10T13:05:45;2.83;;;0.98;;
56760;SDS011;42633;44.494;11.356;2022-07-10T13:08:48;6.28;;;1.15;;
56760;SDS011;42633;44.494;11.356;2022-07-10T13:11:53;2.30;;;0.90;;
56760;SDS011;42633;44.494;11.356;2022-07-10T13:14:58;0.80;;;0.70;;
56760;SDS011;42633;44.494;11.356;2022-07-10T13:18:02;0.80;;;0.70;;
56760;SDS011;42633;44.494;11.356;2022-07-10T13:21:06;0.90;;;0.68;;
56760;SDS011;42633;44.494;11.356;2022-07-10T13:24:10;1.45;;;1.00;;
56760;SDS011;42633;44.494;11.356;2022-07-10T13:27:14;1.90;;;0.95;;
56760;SDS011;42633;44.494;11.356;2022-07-10T13:30:19;3.90;;;1.00;;
56760;SDS011;42633;44.494;11.356;2022-07-10T13:33:23;1.83;;;0.93;;
56760;SDS011;42633;44.494;11.356;2022-07-10T13:36:27;1.55;;;0.88;;
56760;SDS011;42633;44.494;11.356;2022-07-10T13:39:31;3.08;;;0.60;;
56760;SDS011;42633;44.494;11.356;2022-07-10T13:42:35;2.33;;;0.77;;
56760;SDS011;42633;44.494;11.356;2022-07-10T13:45:39;1.77;;;0.80;;
56760;SDS011;42633;44.494;11.356;2022-07-10T13:48:46;1.58;;;0.93;;
56760;SDS011;42633;44.494;11.356;2022-07-10T13:51:50;2.50;;;0.85;;
56760;SDS011;42633;44.494;11.356;2022-07-10T13:54:54;2.75;;;1.00;;
56760;SDS011;42633;44.494;11.356;2022-07-10T13:57:58;2.05;;;0.85;;
56760;SDS011;42633;44.494;11.356;2022-07-10T14:01:03;1.80;;;0.63;;
56760;SDS011;42633;44.494;11.356;2022-07-10T14:04:07;1.70;;;0.68;;
56760;SDS011;42633;44.494;11.356;2022-07-10T14:07:11;2.28;;;1.20;;
56760;SDS011;42633;44.494;11.356;2022-07-10T14:10:15;2.08;;;1.65;;
56760;SDS011;42633;44.494;11.356;2022-07-10T14:13:19;2.95;;;1.10;;
56760;SDS011;42633;44.494;11.356;2022-07-10T14:16:23;1.63;;;0.95;;
56760;SDS011;42633;44.494;11.356;2022-07-10T14:19:27;3.63;;;1.15;;
56760;SDS011;42633;44.494;11.356;2022-07-10T14:22:31;0.80;;;0.77;;
56760;SDS011;42633;44.494;11.356;2022-07-10T14:25:35;1.63;;;0.80;;
56760;SDS011;42633;44.494;11.356;2022-07-10T14:28:39;1.98;;;1.30;;
56760;SDS011;42633;44.494;11.356;2022-07-10T14:31:44;1.02;;;0.60;;
56760;SDS011;42633;44.494;11.356;2022-07-10T14:35:02;2.13;;;0.95;;
56760;SDS011;42633;44.494;11.356;2022-07-10T14:38:07;3.00;;;0.85;;
56760;SDS011;42633;44.494;11.356;2022-07-10T14:41:11;0.93;;;0.70;;
56760;SDS011;42633;44.494;11.356;2022-07-10T14:44:15;2.00;;;1.00;;
56760;SDS011;42633;44.494;11.356;2022-07-10T14:47:19;1.42;;;1.05;;
56760;SDS011;42633;44.494;11.356;2022-07-10T14:50:23;2.28;;;1.30;;
56760;SDS011;42633;44.494;11.356;2022-07-10T14:53:27;1.13;;;0.77;;
56760;SDS011;42633;44.494;11.356;2022-07-10T14:56:31;2.65;;;1.00;;
56760;SDS011;42633;44.494;11.356;2022-07-10T14:59:35;1.10;;;1.00;;
56760;SDS011;42633;44.494;11.356;2022-07-10T15:02:39;1.42;;;0.80;;
56760;SDS011;42633;44.494;11.356;2022-07-10T15:05:43;1.15;;;0.80;;
56760;SDS011;42633;44.494;11.356;2022-07-10T15:08:47;1.27;;;0.90;;
56760;SDS011;42633;44.494;11.356;2022-07-10T15:11:54;1.35;;;0.70;;
56760;SDS011;42633;44.494;11.356;2022-07-10T15:14:59;1.30;;;0.90;;
56760;SDS011;42633;44.494;11.356;2022-07-10T15:18:03;3.08;;;1.10;;
56760;SDS011;42633;44.494;11.356;2022-07-10T15:21:07;2.03;;;1.05;;
56760;SDS011;42633;44.494;11.356;2022-07-10T15:24:12;2.97;;;0.90;;
56760;SDS011;42633;44.494;11.356;2022-07-10T15:27:15;2.50;;;1.02;;
56760;SDS011;42633;44.494;11.356;2022-07-10T15:30:20;1.63;;;1.15;;
56760;SDS011;42633;44.494;11.356;2022-07-10T15:33:24;1.60;;;0.80;;
56760;SDS011;42633;44.494;11.356;2022-07-10T15:36:28;1.67;;;1.23;;
56760;SDS011;42633;44.494;11.356;2022-07-10T15:39:32;1.90;;;1.10;;
56760;SDS011;42633;44.494;11.356;2022-07-10T15:42:44;2.65;;;1.35;;
56760;SDS011;42633;44.494;11.356;2022-07-10T15:45:48;1.52;;;1.10;;
56760;SDS011;42633;44.494;11.356;2022-07-10T15:48:52;1.75;;;0.55;;
56760;SDS011;42633;44.494;11.356;2022-07-10T15:51:56;0.80;;;0.70;;
56760;SDS011;42633;44.494;11.356;2022-07-10T15:55:04;2.67;;;1.35;;
56760;SDS011;42633;44.494;11.356;2022-07-10T15:58:08;0.80;;;0.73;;
56760;SDS011;42633;44.494;11.356;2022-07-10T16:01:13;0.77;;;0.68;;
56760;SDS011;42633;44.494;11.356;2022-07-10T16:04:19;1.10;;;0.90;;
56760;SDS011;42633;44.494;11.356;2022-07-10T16:07:23;1.75;;;0.50;;
56760;SDS011;42633;44.494;11.356;2022-07-10T16:10:28;1.92;;;1.30;;
56760;SDS011;42633;44.494;11.356;2022-07-10T16:13:33;1.58;;;0.90;;
56760;SDS011;42633;44.494;11.356;2022-07-10T16:16:37;1.02;;;0.80;;
56760;SDS011;42633;44.494;11.356;2022-07-10T16:19:41;1.63;;;0.90;;
56760;SDS011;42633;44.494;11.356;2022-07-10T16:22:45;1.48;;;0.93;;
56760;SDS011;42633;44.494;11.356;2022-07-10T16:25:53;1.98;;;1.20;;
56760;SDS011;42633;44.494;11.356;2022-07-10T16:29:08;1.88;;;1.58;;
56760;SDS011;42633;44.494;11.356;2022-07-10T16:32:12;2.55;;;1.73;;
56760;SDS011;42633;44.494;11.356;2022-07-10T16:35:16;2.40;;;0.77;;
56760;SDS011;42633;44.494;11.356;2022-07-10T16:38:24;2.05;;;0.80;;
56760;SDS011;42633;44.494;11.356;2022-07-10T16:41:28;1.48;;;0.85;;
56760;SDS011;42633;44.494;11.356;2022-07-10T16:44:33;2.25;;;1.52;;
56760;SDS011;42633;44.494;11.356;2022-07-10T16:47:37;1.42;;;0.98;;
56760;SDS011;42633;44.494;11.356;2022-07-10T16:50:41;1.80;;;0.90;;
56760;SDS011;42633;44.494;11.356;2022-07-10T16:53:46;1.50;;;0.88;;
56760;SDS011;42633;44.494;11.356;2022-07-10T16:56:50;1.08;;;0.63;;
56760;SDS011;42633;44.494;11.356;2022-07-10T16:59:54;1.40;;;0.65;;
56760;SDS011;42633;44.494;11.356;2022-07-10T17:02:58;2.47;;;0.88;;
56760;SDS011;42633;44.494;11.356;2022-07-10T17:06:02;0.93;;;0.75;;
56760;SDS011;42633;44.494;11.356;2022-07-10T17:09:06;1.10;;;0.70;;
56760;SDS011;42633;44.494;11.356;2022-07-10T17:12:10;2.33;;;0.73;;
56760;SDS011;42633;44.494;11.356;2022-07-10T17:15:14;1.90;;;0.60;;
56760;SDS011;42633;44.494;11.356;2022-07-10T17:18:18;3.33;;;0.90;;
56760;SDS011;42633;44.494;11.356;2022-07-10T17:21:22;1.10;;;0.70;;
56760;SDS011;42633;44.494;11.356;2022-07-10T17:24:27;1.70;;;1.27;;
56760;SDS011;42633;44.494;11.356;2022-07-10T17:27:32;1.80;;;1.38;;
56760;SDS011;42633;44.494;11.356;2022-07-10T17:30:36;4.80;;;2.65;;
56760;SDS011;42633;44.494;11.356;2022-07-10T17:33:41;5.03;;;4.50;;
56760;SDS011;42633;44.494;11.356;2022-07-10T17:36:45;3.92;;;3.28;;
56760;SDS011;42633;44.494;11.356;2022-07-10T17:39:49;4.63;;;2.90;;
56760;SDS011;42633;44.494;11.356;2022-07-10T17:42:58;6.32;;;4.45;;
56760;SDS011;42633;44.494;11.356;2022-07-10T17:46:02;3.60;;;2.60;;
56760;SDS011;42633;44.494;11.356;2022-07-10T17:49:06;1.60;;;1.10;;
56760;SDS011;42633;44.494;11.356;2022-07-10T17:52:11;5.20;;;2.78;;
56760;SDS011;42633;44.494;11.356;2022-07-10T17:55:15;1.13;;;1.00;;
56760;SDS011;42633;44.494;11.356;2022-07-10T17:58:19;3.58;;;1.15;;
56760;SDS011;42633;44.494;11.356;2022-07-10T18:01:24;11.65;;;1.83;;
56760;SDS011;42633;44.494;11.356;2022-07-10T18:04:28;5.90;;;1.80;;
56760;SDS011;42633;44.494;11.356;2022-07-10T18:07:32;6.88;;;1.60;;
56760;SDS011;42633;44.494;11.356;2022-07-10T18:10:36;5.38;;;1.40;;
56760;SDS011;42633;44.494;11.356;2022-07-10T18:13:40;3.40;;;1.20;;
56760;SDS011;42633;44.494;11.356;2022-07-10T18:16:45;4.68;;;1.30;;
56760;SDS011;42633;44.494;11.356;2022-07-10T18:19:50;4.30;;;1.23;;
56760;SDS011;42633;44.494;11.356;2022-07-10T18:22:57;3.00;;;1.10;;
56760;SDS011;42633;44.494;11.356;2022-07-10T18:26:03;6.18;;;1.60;;
56760;SDS011;42633;44.494;11.356;2022-07-10T18:29:07;3.13;;;1.60;;
56760;SDS011;42633;44.494;11.356;2022-07-10T18:32:12;10.70;;;4.93;;
56760;SDS011;42633;44.494;11.356;2022-07-10T18:35:17;9.63;;;5.00;;
56760;SDS011;42633;44.494;11.356;2022-07-10T18:38:22;16.98;;;12.05;;
56760;SDS011;42633;44.494;11.356;2022-07-10T18:41:26;9.80;;;6.32;;
56760;SDS011;42633;44.494;11.356;2022-07-10T18:44:31;6.47;;;4.47;;
56760;SDS011;42633;44.494;11.356;2022-07-10T18:47:34;9.50;;;8.20;;
56760;SDS011;42633;44.494;11.356;2022-07-10T18:50:38;4.50;;;2.42;;
56760;SDS011;42633;44.494;11.356;2022-07-10T18:53:43;7.82;;;1.80;;
56760;SDS011;42633;44.494;11.356;2022-07-10T18:56:48;5.45;;;2.53;;
56760;SDS011;42633;44.494;11.356;2022-07-10T18:59:52;7.93;;;1.70;;
56760;SDS011;42633;44.494;11.356;2022-07-10T19:02:55;6.95;;;1.67;;
56760;SDS011;42633;44.494;11.356;2022-07-10T19:05:59;6.38;;;1.90;;
56760;SDS011;42633;44.494;11.356;2022-07-10T19:09:03;3.33;;;1.70;;